National Stock Yards, IL (62071)

12:02 AM CST on December 06, 2016 (GMT -0600)
St Louis, MO | | Change Station

Elev 505 ft 38.63 °N, 90.19 °W | Updated 15 minutes ago

Overcast
Overcast
37.9 °F
Feels Like 38 °F
N
2.2
Wind Variable Wind from WNW

Today
High -- | Low -- °F
--% Chance of Precip.
Yesterday
High -- | Low -- °F
Precip. -- in
Pressure 29.81 in
Visibility 10.0 miles
Clouds Overcast 1200 ft
Windchill 38 °F
Dew Point 34 °F
Humidity 86%
Rainfall in
Snow Depth Not available.
7:04 AM 4:39 PM
Waxing Crescent, 38% visible
METAR KCPS 060553Z AUTO 00000KT 10SM OVC012 04/02 A2980 RMK AO2 SLP092 T00440017 10044 20022 400780011 58020
Pressure 29.81 in
Visibility 10.0 miles
Clouds Overcast 1200 ft
Windchill 38 °F
Dew Point 34 °F
Humidity 86%
Rainfall in
Snow Depth Not available.
7:04 AM 4:39 PM
Waxing Crescent, 38% visible
METAR KCPS 060553Z AUTO 00000KT 10SM OVC012 04/02 A2980 RMK AO2 SLP092 T00440017 10044 20022 400780011 58020

10-Day Weather Forecast

Almanac

Astronomy

Dec. 06, 2016 Rise Set
Actual Time
Civil Twilight
Nautical Twilight
Astronomical Twilight
Moon
Length of Visible Light
Length of Day
Tomorrow will be .
, % of the Moon is Illuminated

Today's Extremes

State Highs State Lows

Community

WunderPhotos

Upload Photos

1,955,931 photos uploaded!

WunderBlog® & News

Nearby

Air Quality

  Air Quality AQ Index Pollutant
Not available.

Snow Depth

Station Depth Elevation

Earthquake Activity

City Distance Mag. Time & Date
Minimum magnitude displayed is 2.5.

Coastal Water Temperatures

Place Temperature

Stations

Nearby Weather Stations

Station Location Temp. Windchill Dew Point Humidity Wind Precip. Elev Updated Type
                   

Watches & Warnings

There are currently no watches in effect.